Latest Weather Observations for Marree Airport

IDS60801

Issued at 2:02 pm CST Sunday 19 April 2015 (issued every 30 minutes, with the page automatically refreshed every 10 minutes)

About weather observations | Map of weather stations | Latest weather observations for SA | Other Formats
Station Details ID: 017126 Name: MARREE AERO Lat: -29.66 Lon: 138.07 Height: 50.0 m
Data from the previous 72 hours. | See also: Recent months for locations in South Australia
Date/Time
CST
Temp
°C
App
Temp
°C
Dew
Point
Rel
Hum
%
Delta-T
°C
Wind Press
QNH
hPa
Press
MSL
hPa
Rain
since 9 am
mm
Dir
 
Spd
km/h
Gust
km/h
Spd
kts
Gust
kts
19/02:00pm 20.1 12.9 2.9 32 8.0 SSE 30 39 16 21 1027.9 - 0.0
19/01:30pm 20.1 13.5 4.2 35 7.6 SSE 28 41 15 22 1028.0 - 0.0
19/01:00pm 20.3 13.5 5.1 37 7.5 SSE 30 37 16 20 1028.1 - 0.0
19/12:30pm 19.8 13.7 6.5 42 6.7 SSE 28 39 15 21 1028.5 - 0.0
19/12:00pm 19.3 13.5 6.4 43 6.4 SSE 26 41 14 22 1028.9 1028.8 0.0
19/11:30am 19.4 13.0 6.8 44 6.4 SE 30 43 16 23 1028.9 - 0.0
19/11:00am 18.9 12.9 8.6 51 5.4 SE 30 39 16 21 1029.1 - 0.0
19/10:30am 19.1 13.9 9.0 52 5.3 SE 26 39 14 21 1029.0 - 0.0
19/10:00am 18.2 12.3 9.0 55 4.8 SSE 30 37 16 20 1028.8 - 0.0
19/09:30am 17.4 10.9 8.8 57 4.4 SSE 33 41 18 22 1028.6 - 0.0
19/09:00am 17.0 10.8 9.4 61 3.9 SE 32 39 17 21 1028.3 1028.2 0.0
19/08:30am 16.2 10.6 10.3 68 3.1 SE 30 35 16 19 1028.0 - 0.0
19/08:00am 15.7 11.9 12.3 80 1.9 SSE 24 30 13 16 1027.4 - 0.0
19/07:30am 15.0 10.6 11.8 81 1.7 SSE 26 32 14 17 1027.0 - 0.0
19/07:00am 14.1 9.7 11.8 86 1.2 S 26 33 14 18 1026.3 - 0.0
19/06:30am 13.7 9.3 11.7 88 1.1 S 26 35 14 19 1025.7 - 0.0
19/06:00am 14.0 9.1 12.6 91 0.8 S 30 37 16 20 1025.1 1025.0 0.0
19/05:30am 14.0 10.4 13.2 95 0.4 S 24 32 13 17 1024.8 - 0.0
19/05:00am 14.4 10.2 13.6 95 0.4 S 28 33 15 18 1024.5 - 0.0
19/04:30am 14.5 10.4 13.7 95 0.4 S 28 35 15 19 1023.8 - 0.0
19/04:00am 15.1 12.9 14.3 95 0.5 SSW 19 24 10 13 1023.4 - 0.0
19/03:30am 15.1 12.0 13.3 89 1.0 SSW 22 28 12 15 1023.3 - 0.0
19/03:00am 15.5 12.2 12.8 84 1.5 SSW 22 32 12 17 1023.2 1023.1 0.0
19/02:30am 13.0 12.5 12.2 95 0.4 SSW 6 11 3 6 1023.3 - 0.0
19/02:00am 13.2 12.1 11.8 91 0.7 SSW 9 13 5 7 1023.4 - 0.0
19/01:30am 13.5 13.1 11.0 85 1.3 WSW 4 7 2 4 1023.7 - 0.0
19/01:00am 14.2 13.1 10.8 80 1.8 SW 7 11 4 6 1023.6 - 0.0
19/12:30am 15.1 12.6 10.9 76 2.2 SSW 15 17 8 9 1023.6 - 0.0
19/12:00am 14.5 13.4 10.5 77 2.1 SW 7 9 4 5 1023.5 1023.4 0.0
 
Date/Time
CST
Temp
°C
App
Temp
°C
Dew
Point
Rel
Hum
%
Delta-T
°C
Wind Press
QNH
hPa
Press
MSL
hPa
Rain
since 9 am
mm
Dir
 
Spd
km/h
Gust
km/h
Spd
kts
Gust
kts
18/11:30pm 15.0 12.5 11.2 78 2.0 SSW 15 17 8 9 1023.4 - 0.0
18/11:00pm 14.4 12.9 10.6 78 2.0 SSW 9 13 5 7 1023.4 - 0.0
18/10:30pm 15.8 13.2 10.8 72 2.7 S 15 17 8 9 1023.3 - 0.0
18/10:00pm 16.1 13.5 10.8 71 2.8 S 15 19 8 10 1023.4 - 0.0
18/09:30pm 16.1 13.0 10.4 69 3.0 S 17 19 9 10 1023.2 - 0.0
18/09:00pm 16.4 13.5 9.8 65 3.4 S 15 17 8 9 1023.0 1022.9 0.0
18/08:30pm 16.6 13.7 9.8 64 3.6 SSW 15 17 8 9 1022.6 - 0.0
18/08:00pm 17.1 14.2 9.5 61 4.0 SSW 15 17 8 9 1022.2 - 0.0
18/07:30pm 18.0 15.3 9.1 56 4.6 SSW 13 17 7 9 1021.7 - 0.0
18/07:00pm 18.8 15.4 9.0 53 5.1 S 17 20 9 11 1021.2 - 0.0
18/06:30pm 19.6 15.3 8.0 47 6.0 SSW 20 28 11 15 1020.6 - 0.0
18/06:00pm 20.1 15.0 7.5 44 6.4 SSW 24 33 13 18 1020.3 1020.2 0.0
18/05:30pm 21.1 15.8 7.0 40 7.2 SSW 24 32 13 17 1019.9 - 0.0
18/05:00pm 21.7 16.5 7.2 39 7.5 SSW 24 32 13 17 1019.6 - 0.0
18/04:30pm 22.1 17.1 7.9 40 7.4 S 24 32 13 17 1019.2 - 0.0
18/04:00pm 22.4 17.0 8.1 40 7.5 S 26 33 14 18 1019.2 - 0.0
18/03:30pm 22.4 16.6 8.1 40 7.5 SW 28 37 15 20 1019.1 - 0.0
18/03:00pm 22.2 16.5 8.3 41 7.3 SSW 28 35 15 19 1019.0 1018.9 0.0
18/02:30pm 23.0 18.4 9.8 43 7.2 SSW 24 37 13 20 1018.8 - 0.0
18/02:00pm 22.5 16.9 10.3 46 6.7 SSW 30 39 16 21 1018.7 - 0.0
18/01:30pm 22.2 16.7 10.7 48 6.3 SSW 30 41 16 22 1018.9 - 0.0
18/01:00pm 22.2 17.3 11.3 50 6.1 SSW 28 35 15 19 1019.4 - 0.0
18/12:30pm 21.2 16.4 11.8 55 5.3 SSW 28 37 15 20 1019.8 - 0.0
18/12:00pm 21.4 17.8 13.1 59 4.7 SSW 24 37 13 20 1020.2 1020.1 0.0
18/11:30am 20.4 16.1 12.1 59 4.6 S 26 35 14 19 1020.7 - 0.0
18/11:00am 19.8 15.3 12.6 63 4.1 S 28 37 15 20 1020.9 - 0.0
18/10:30am 19.4 15.4 13.1 67 3.6 SSW 26 33 14 18 1021.4 - 0.0
18/10:00am 18.9 14.8 13.7 72 3.0 S 28 35 15 19 1021.3 - 0.0
18/09:30am 18.5 15.1 13.8 74 2.7 S 24 32 13 17 1021.4 - 0.0
18/09:00am 17.7 12.9 14.0 79 2.1 S 32 44 17 24 1020.8 1020.7 0.8
18/08:30am 17.1 11.9 14.4 84 1.6 S 35 43 19 23 1020.2 - 0.8
18/08:00am 16.3 13.5 15.3 94 0.6 S 24 32 13 17 1020.3 - 0.8
18/07:30am 15.6 13.4 14.8 95 0.5 S 20 28 11 15 1019.8 - 0.8
18/07:00am 14.8 12.5 14.0 95 0.5 S 19 22 10 12 1019.3 - 0.8
18/06:30am 14.6 11.6 13.8 95 0.4 S 22 26 12 14 1018.6 - 0.8
18/06:00am 15.1 11.9 14.3 95 0.5 S 24 32 13 17 1018.2 1018.1 0.8
18/05:30am 15.3 11.4 14.3 94 0.6 SSW 28 35 15 19 1017.8 - 0.8
18/05:00am 15.5 12.5 14.7 95 0.5 S 24 30 13 16 1017.4 - 0.8
18/04:30am 15.4 12.7 14.6 95 0.5 S 22 30 12 16 1017.2 - 0.8
18/04:00am 15.9 12.2 15.1 95 0.5 S 28 33 15 18 1017.0 - 0.8
18/03:30am 15.9 13.4 15.1 95 0.5 S 22 30 12 16 1016.8 - 0.8
18/03:00am 16.2 14.2 15.6 96 0.4 SSW 20 26 11 14 1017.0 1016.9 0.8
18/02:30am 16.1 13.7 15.5 96 0.3 SSW 22 28 12 15 1017.1 - 0.8
18/02:00am 16.0 14.9 15.4 96 0.3 SW 15 17 8 9 1017.2 - 0.8
18/01:30am 16.4 16.2 15.8 96 0.4 SW 11 15 6 8 1017.0 - 0.8
18/01:00am 16.3 15.7 15.7 96 0.4 WSW 13 17 7 9 1017.2 - 0.8
18/12:30am 16.5 16.0 15.9 96 0.4 WSW 13 15 7 8 1017.2 - 0.8
18/12:00am 16.9 16.9 16.3 96 0.4 WSW 11 15 6 8 1017.5 1017.4 0.8
 
Date/Time
CST
Temp
°C
App
Temp
°C
Dew
Point
Rel
Hum
%
Delta-T
°C
Wind Press
QNH
hPa
Press
MSL
hPa
Rain
since 9 am
mm
Dir
 
Spd
km/h
Gust
km/h
Spd
kts
Gust
kts
17/11:30pm 17.3 17.0 16.5 95 0.5 WSW 13 15 7 8 1017.7 - 0.8
17/11:00pm 17.9 18.2 17.1 95 0.5 SSW 11 15 6 8 1018.0 - 0.8
17/10:30pm 18.2 19.4 17.4 95 0.5 SSW 7 9 4 5 1018.3 - 0.8
17/10:00pm 18.3 19.2 17.5 95 0.5 SSW 9 13 5 7 1018.2 - 0.8
17/09:30pm 18.6 17.7 17.8 95 0.5 SW 19 22 10 12 1018.1 - 0.8
17/09:00pm 18.8 17.8 18.0 95 0.5 SW 20 24 11 13 1018.0 1017.9 0.8
17/08:30pm 19.1 17.5 18.3 95 0.5 SW 24 30 13 16 1017.7 - 0.8
17/08:00pm 19.3 19.5 18.5 95 0.5 SW 15 19 8 10 1017.4 - 0.8
17/07:30pm 19.3 20.2 18.5 95 0.5 SSW 11 17 6 9 1017.3 - 0.8
17/07:00pm 19.5 19.0 18.7 95 0.5 SSW 19 24 10 13 1016.8 - 0.8
17/06:30pm 19.7 19.7 18.9 95 0.5 SW 17 20 9 11 1016.6 - 0.8
17/06:00pm 20.0 19.6 18.8 93 0.8 SSW 19 22 10 12 1016.3 1016.2 0.8
17/05:30pm 20.4 19.6 19.2 93 0.8 SW 22 28 12 15 1015.8 - 0.8
17/05:00pm 20.9 19.7 19.2 90 1.1 SW 24 28 13 15 1015.6 - 0.8
17/04:30pm 21.4 20.9 19.9 91 1.0 SSW 22 28 12 15 1015.2 - 0.8
17/04:00pm 21.2 19.5 19.7 91 1.0 SW 28 32 15 17 1014.8 - 0.8
17/03:30pm 22.0 21.4 19.7 87 1.5 SW 22 28 12 15 1014.8 - 0.8
17/03:00pm 22.4 23.6 19.9 86 1.6 SW 13 19 7 10 1014.8 1014.7 0.8
17/02:30pm 22.3 22.5 20.2 88 1.4 SW 19 22 10 12 1015.1 - 0.8
17/02:00pm 21.7 22.6 20.9 95 0.5 WSW 17 20 9 11 1015.2 - 0.8
17/01:30pm 21.7 21.9 19.4 87 1.5 WSW 17 20 9 11 1015.4 - 0.6
17/01:00pm 22.4 24.0 19.9 86 1.6 WSW 11 13 6 7 1016.0 - 0.2
17/12:30pm 22.4 24.1 19.4 83 1.9 WSW 9 13 5 7 1016.4 - 0.2
17/12:00pm 22.4 24.6 19.2 82 2.0 W 6 9 3 5 1016.6 1016.5 0.2
17/11:30am 21.9 24.8 19.1 84 1.8 WNW 2 7 1 4 1017.3 - 0.2
17/11:00am 21.5 24.2 20.7 95 0.5 S 7 11 4 6 1017.9 - 0.2
17/10:30am 21.1 23.6 20.3 95 0.5 SSE 7 11 4 6 1017.9 - 0.2
17/10:00am 20.6 22.5 19.8 95 0.5 S 9 13 5 7 1017.7 - 0.2
17/09:30am 20.3 22.7 19.6 96 0.4 S 6 7 3 4 1018.6 - 0.0
17/09:00am 20.1 21.9 19.6 97 0.3 S 9 11 5 6 1018.5 1018.4 12.4
17/08:30am 20.0 23.5 19.5 97 0.3 CALM 0 4 0 2 1018.9 - 12.0
17/08:00am 20.2 22.6 19.7 97 0.3 SSW 6 9 3 5 1018.7 - 11.0
17/07:30am 19.8 21.5 19.3 97 0.3 S 9 13 5 7 1018.4 - 10.8
17/07:00am 19.6 20.4 19.1 97 0.3 SW 13 19 7 10 1018.1 - 10.8
17/06:30am 19.5 21.0 18.8 96 0.4 E 9 11 5 6 1017.6 - 10.8
17/06:00am 19.7 20.5 19.0 96 0.4 ESE 13 15 7 8 1016.9 1016.8 10.8
17/05:30am 19.6 20.0 18.9 96 0.4 ESE 15 20 8 11 1016.7 - 10.8
17/05:00am 19.8 19.1 19.5 98 0.2 E 22 30 12 16 1017.0 - 10.8
17/04:30am 19.9 19.6 19.6 98 0.2 ENE 20 28 11 15 1017.5 - 10.6
17/04:00am 20.0 21.1 19.7 98 0.2 S 13 19 7 10 1017.9 - 8.4
17/03:30am 20.1 20.4 19.6 97 0.3 SSW 17 20 9 11 1017.7 - 7.6
17/03:00am 20.2 20.5 19.7 97 0.3 SE 17 19 9 10 1016.8 1016.7 7.2
17/02:30am 20.2 20.2 19.7 97 0.3 SE 19 26 10 14 1017.5 - 7.2
17/02:00am 20.3 20.1 19.8 97 0.3 SSW 20 26 11 14 1017.9 - 7.0
17/01:30am 20.2 19.9 19.5 96 0.4 S 20 28 11 15 1017.3 - 6.8
17/01:00am 20.5 22.0 19.8 96 0.4 SSE 11 17 6 9 1017.1 - 6.2
17/12:30am 20.9 20.5 20.1 95 0.5 ESE 22 32 12 17 1016.7 - 6.2
17/12:00am 21.0 21.1 20.3 96 0.5 E 20 26 11 14 1017.7 1017.6 6.2
 
Date/Time
CST
Temp
°C
App
Temp
°C
Dew
Point
Rel
Hum
%
Delta-T
°C
Wind Press
QNH
hPa
Press
MSL
hPa
Rain
since 9 am
mm
Dir
 
Spd
km/h
Gust
km/h
Spd
kts
Gust
kts
16/11:30pm 20.3 20.7 19.8 97 0.3 E 17 24 9 13 1018.5 - 6.2
16/11:00pm 19.9 18.4 19.4 97 0.3 E 26 35 14 19 1019.0 - 6.0
16/10:30pm 19.5 19.1 19.0 97 0.3 ESE 19 24 10 13 1020.6 - 5.6
16/10:00pm 19.5 19.4 18.8 96 0.4 ESE 17 22 9 12 1021.2 - 5.4
16/09:30pm 19.3 18.1 18.5 95 0.5 SE 22 33 12 18 1021.2 - 4.6
16/09:00pm 20.2 20.3 19.2 94 0.6 ESE 17 24 9 13 1021.8 1021.7 2.6
16/08:30pm 21.4 22.5 19.7 90 1.1 SE 13 17 7 9 1021.0 - 1.8
16/08:00pm 21.9 21.0 18.1 79 2.4 SSE 20 26 11 14 1020.0 - 1.8
16/07:30pm 22.7 22.2 17.8 74 3.1 SSE 17 20 9 11 1019.7 - 1.4
16/07:00pm 23.4 22.6 18.5 74 3.1 ESE 20 26 11 14 1018.0 - 1.4
16/06:30pm 23.7 24.3 19.4 77 2.8 ESE 15 22 8 12 1017.5 - 1.4
16/06:00pm 24.2 24.1 19.5 75 3.0 ESE 19 26 10 14 1017.1 1017.0 1.4
16/05:30pm 25.7 24.9 18.4 64 4.6 SW 20 22 11 12 1018.2 - 1.0
16/05:23pm 26.5 26.8 17.8 58 5.5 SE 13 22 7 12 1018.2 - 0.6
16/05:00pm 30.3 27.3 13.6 36 10.0 E 22 30 12 16 1016.2 - 0.0
16/04:30pm 31.8 29.2 13.1 32 11.2 E 19 24 10 13 1015.9 - 0.0
16/04:00pm 32.4 30.0 12.6 30 11.8 ENE 17 20 9 11 1016.2 - 0.0
16/03:30pm 32.4 29.6 12.6 30 11.8 E 19 24 10 13 1016.4 - 0.0
16/03:00pm 31.7 29.1 13.9 34 10.8 ENE 20 26 11 14 1016.6 1016.5 0.0
16/02:30pm 32.3 28.9 12.5 30 11.8 NNE 22 30 12 16 1016.8 - 0.0

Other Formats:

Comma delimited format used in spreadsheet applications
http://www.bom.gov.au/fwo/IDS60801/IDS60801.95480.axf

JavaScript Object Notation format (JSON) in row-major order
http://www.bom.gov.au/fwo/IDS60801/IDS60801.95480.json